Time;durP1;ratioP1;P1;durP2;ratioP2;P2;SDS_P1;SDS_P2;PMS_P1;PMS_P2;Temp;Humidity;BMP_temperature;BMP_pressure;BME280_temperature;BME280_humidity;BME280_pressure;Samples;Min_cycle;Max_cycle;Signal;HPM_P1;HPM_P2
2022/09/27 00:00:29;;;;;;;2.23;1.37;;;10.20;99.90;;;;;;6246369;22;20543;-45
2022/09/27 00:02:54;;;;;;;3.80;1.00;;;10.20;99.90;;;;;;6246061;22;20159;-45
2022/09/27 00:05:20;;;;;;;2.50;1.20;;;10.10;99.90;;;;;;6246834;22;20157;-44
2022/09/27 00:07:46;;;;;;;2.70;0.97;;;10.10;99.90;;;;;;6245939;22;20186;-43
2022/09/27 00:10:12;;;;;;;10.80;1.10;;;10.10;99.90;;;;;;6246158;22;20162;-45
2022/09/27 00:12:38;;;;;;;3.60;0.90;;;10.10;99.90;;;;;;6244732;23;20184;-45
2022/09/27 00:15:05;;;;;;;2.83;0.97;;;10.10;99.90;;;;;;6246347;22;20160;-45
2022/09/27 00:17:31;;;;;;;1.90;0.80;;;10.10;99.90;;;;;;6245902;22;20179;-42
2022/09/27 00:20:00;;;;;;;3.50;1.00;;;10.00;99.90;;;;;;6246320;22;20291;-43
2022/09/27 00:22:27;;;;;;;2.90;0.97;;;10.00;99.90;;;;;;6246855;22;20163;-45
2022/09/27 00:24:53;;;;;;;1.67;0.90;;;10.00;99.90;;;;;;6246161;22;20577;-44
2022/09/27 00:27:25;;;;;;;1.90;0.80;;;10.00;99.90;;;;;;6246284;22;20688;-44
2022/09/27 00:29:52;;;;;;;4.10;1.37;;;10.00;99.90;;;;;;6244582;23;20149;-45
2022/09/27 00:32:19;;;;;;;4.57;1.00;;;10.00;99.90;;;;;;6245504;22;20182;-43
2022/09/27 00:34:45;;;;;;;2.03;0.70;;;10.00;99.90;;;;;;6244442;23;20177;-43
2022/09/27 00:37:18;;;;;;;5.90;1.00;;;10.00;99.90;;;;;;6245774;22;20512;-44
2022/09/27 00:39:46;;;;;;;1.67;1.03;;;10.00;99.90;;;;;;6246094;22;20144;-43
2022/09/27 00:42:13;;;;;;;2.37;1.10;;;10.00;99.90;;;;;;6246754;22;20482;-46
2022/09/27 00:44:40;;;;;;;2.73;1.13;;;10.00;99.90;;;;;;6245890;22;20166;-45
2022/09/27 00:47:17;;;;;;;3.63;1.07;;;10.00;99.90;;;;;;6246140;22;20186;-45
2022/09/27 00:50:01;;;;;;;1.53;1.17;;;10.00;99.90;;;;;;6244901;23;20173;-44
2022/09/27 00:53:00;;;;;;;3.13;1.20;;;10.00;99.90;;;;;;6246425;22;20144;-46
2022/09/27 00:55:32;;;;;;;1.63;1.23;;;10.00;99.90;;;;;;6246155;22;20136;-45
2022/09/27 00:57:57;;;;;;;2.17;1.40;;;10.00;99.90;;;;;;6244250;23;20216;-46
2022/09/27 01:00:23;;;;;;;4.07;1.20;;;10.00;99.90;;;;;;6245945;22;20159;-43
2022/09/27 01:02:52;;;;;;;4.27;1.33;;;10.00;99.90;;;;;;6246672;22;20256;-44
2022/09/27 01:05:20;;;;;;;5.80;1.63;;;10.00;99.90;;;;;;6246573;22;20209;-45
2022/09/27 01:07:58;;;;;;;4.53;1.57;;;10.00;99.90;;;;;;6247607;22;20217;-45
2022/09/27 01:10:29;;;;;;;1.57;1.00;;;10.00;99.90;;;;;;6223522;23;20604;-44
2022/09/27 01:13:16;;;;;;;3.20;1.10;;;10.00;99.90;;;;;;6246084;23;20686;-44
2022/09/27 01:16:06;;;;;;;3.20;1.20;;;10.00;99.90;;;;;;6247650;22;20646;-44
2022/09/27 01:18:52;;;;;;;3.83;1.30;;;10.00;99.90;;;;;;6247905;23;20147;-43
2022/09/27 01:21:48;;;;;;;2.57;0.67;;;10.00;99.90;;;;;;6197817;23;20155;-44
2022/09/27 01:24:30;;;;;;;2.53;1.50;;;10.00;99.90;;;;;;6247849;22;20173;-44
2022/09/27 01:27:29;;;;;;;3.40;1.47;;;10.00;99.90;;;;;;6220893;23;20194;-43
2022/09/27 01:30:14;;;;;;;2.30;1.30;;;10.00;99.90;;;;;;6252460;23;20603;-45
2022/09/27 01:32:59;;;;;;;2.63;1.13;;;10.00;99.90;;;;;;6253074;22;20191;-44
2022/09/27 01:36:13;;;;;;;6.50;1.67;;;10.00;99.90;;;;;;6250715;23;20187;-44
2022/09/27 01:38:45;;;;;;;6.03;1.50;;;10.00;99.90;;;;;;6215447;23;20227;-45
2022/09/27 01:41:37;;;;;;;8.90;2.03;;;10.00;99.90;;;;;;6252572;22;20150;-45
2022/09/27 01:44:38;;;;;;;1.70;1.30;;;10.00;99.90;;;;;;6248855;22;20162;-44
2022/09/27 01:47:14;;;;;;;4.30;1.47;;;10.00;99.90;;;;;;6225401;23;20192;-45
2022/09/27 01:49:56;;;;;;;4.30;1.50;;;10.00;99.90;;;;;;6250384;23;20166;-44
2022/09/27 01:52:32;;;;;;;3.40;1.60;;;10.00;99.90;;;;;;6244180;23;20158;-43
2022/09/27 01:55:02;;;;;;;3.47;1.27;;;10.00;99.90;;;;;;6253592;22;20137;-45
2022/09/27 01:57:39;;;;;;;5.00;1.53;;;10.00;99.90;;;;;;6254165;22;20238;-44
2022/09/27 02:00:13;;;;;;;4.07;1.20;;;10.00;99.90;;;;;;6253764;22;20172;-45
2022/09/27 02:03:05;;;;;;;2.40;1.10;;;10.00;99.90;;;;;;6251934;23;20183;-44
2022/09/27 02:05:41;;;;;;;4.00;1.30;;;10.00;99.90;;;;;;6216192;23;20166;-44
2022/09/27 02:08:28;;;;;;;3.27;1.20;;;9.90;99.90;;;;;;6252968;22;20171;-44
2022/09/27 02:10:57;;;;;;;1.87;0.90;;;9.90;99.90;;;;;;6250880;23;20155;-44
2022/09/27 02:13:32;;;;;;;1.47;1.10;;;9.90;99.90;;;;;;6251776;22;20152;-43
2022/09/27 02:16:21;;;;;;;2.10;1.00;;;9.90;99.90;;;;;;6248249;22;20489;-44
2022/09/27 02:19:08;;;;;;;1.00;0.80;;;9.90;99.90;;;;;;6248401;23;20230;-42
2022/09/27 02:22:11;;;;;;;2.53;1.20;;;9.80;99.90;;;;;;6247039;22;20476;-44
2022/09/27 02:25:13;;;;;;;1.53;0.80;;;9.80;99.90;;;;;;6248223;22;20164;-45
2022/09/27 02:28:17;;;;;;;2.97;0.87;;;9.70;99.90;;;;;;6246725;22;20194;-44
2022/09/27 02:30:45;;;;;;;1.60;0.60;;;9.70;99.90;;;;;;6249456;22;20275;-43
2022/09/27 02:33:11;;;;;;;1.53;0.73;;;9.70;99.90;;;;;;6247551;23;20162;-46
2022/09/27 02:35:37;;;;;;;4.43;0.90;;;9.60;99.90;;;;;;6249052;22;20155;-45
2022/09/27 02:38:21;;;;;;;1.47;0.60;;;9.70;99.90;;;;;;6249681;22;20181;-46
2022/09/27 02:41:14;;;;;;;0.77;0.60;;;9.60;99.90;;;;;;6249026;22;20274;-39
2022/09/27 02:43:46;;;;;;;2.53;1.00;;;9.60;99.90;;;;;;6222936;23;20245;-37
2022/09/27 02:47:02;;;;;;;1.23;0.80;;;9.60;99.90;;;;;;6246657;22;20264;-40
2022/09/27 02:49:28;;;;;;;2.37;0.80;;;9.50;99.90;;;;;;6235836;22;20502;-40
2022/09/27 02:52:10;;;;;;;3.80;1.20;;;9.50;99.90;;;;;;6247311;22;20576;-42
2022/09/27 02:55:05;;;;;;;2.53;0.90;;;9.50;99.90;;;;;;6245744;23;20157;-38
2022/09/27 02:58:05;;;;;;;2.17;0.93;;;9.50;99.90;;;;;;6230269;22;20190;-39
2022/09/27 03:00:51;;;;;;;1.77;0.80;;;9.50;99.90;;;;;;6246971;23;20156;-38
2022/09/27 03:03:24;;;;;;;2.90;0.90;;;9.50;99.90;;;;;;6246771;22;20147;-39
2022/09/27 03:06:15;;;;;;;4.50;1.10;;;9.60;99.90;;;;;;6246968;22;20147;-39
2022/09/27 03:09:04;;;;;;;3.30;1.00;;;9.50;99.90;;;;;;6246640;22;20235;-38
2022/09/27 03:11:48;;;;;;;3.37;1.10;;;9.50;99.90;;;;;;6245613;23;20157;-37
2022/09/27 03:14:34;;;;;;;1.03;0.60;;;9.50;99.90;;;;;;6244998;23;20152;-40
2022/09/27 03:17:22;;;;;;;4.60;1.03;;;9.50;99.90;;;;;;6246580;22;20180;-42
2022/09/27 03:20:01;;;;;;;2.87;0.70;;;9.50;99.90;;;;;;6246491;22;20616;-40
2022/09/27 03:22:29;;;;;;;4.57;0.87;;;9.50;99.90;;;;;;6244472;23;20145;-40
2022/09/27 03:24:57;;;;;;;4.03;0.67;;;9.50;99.90;;;;;;6246381;22;20172;-37
2022/09/27 03:27:35;;;;;;;2.20;0.80;;;9.50;99.90;;;;;;6246540;22;20199;-39
2022/09/27 03:30:01;;;;;;;2.70;0.77;;;9.50;99.90;;;;;;6221313;23;20145;-37
2022/09/27 03:32:36;;;;;;;3.67;0.90;;;9.40;99.90;;;;;;6246669;22;20159;-40
2022/09/27 03:35:07;;;;;;;4.07;0.90;;;9.40;99.90;;;;;;6246233;22;20252;-38
2022/09/27 03:37:38;;;;;;;4.33;0.60;;;9.40;99.90;;;;;;6246343;22;20233;-42
2022/09/27 03:40:08;;;;;;;2.37;1.10;;;9.30;99.90;;;;;;6246609;22;20248;-40
2022/09/27 03:42:34;;;;;;;0.60;0.57;;;9.30;99.90;;;;;;6244723;23;20149;-41
2022/09/27 03:45:18;;;;;;;2.70;1.10;;;9.30;99.90;;;;;;6246282;22;20490;-40
2022/09/27 03:47:53;;;;;;;3.47;0.63;;;9.30;99.90;;;;;;6246454;22;20200;-42
2022/09/27 03:50:26;;;;;;;1.43;0.73;;;9.20;99.90;;;;;;6246235;22;20144;-42
2022/09/27 03:52:54;;;;;;;3.67;0.77;;;9.20;99.90;;;;;;6246999;22;20145;-42
2022/09/27 03:55:23;;;;;;;1.53;0.53;;;9.20;99.90;;;;;;6246167;22;20161;-41
2022/09/27 03:57:49;;;;;;;2.67;0.63;;;9.20;99.90;;;;;;6244618;23;20245;-37
2022/09/27 04:00:16;;;;;;;2.00;0.83;;;9.10;99.90;;;;;;6246270;22;20618;-39
2022/09/27 04:02:51;;;;;;;5.50;1.10;;;9.10;99.90;;;;;;6246060;22;20157;-39
2022/09/27 04:05:22;;;;;;;1.77;0.60;;;9.00;99.90;;;;;;6219832;23;20190;-37
2022/09/27 04:07:49;;;;;;;1.73;0.80;;;9.00;99.90;;;;;;6245970;22;20243;-40
2022/09/27 04:10:16;;;;;;;1.77;0.90;;;9.00;99.90;;;;;;6244514;23;20160;-40
2022/09/27 04:12:42;;;;;;;1.57;0.70;;;9.00;99.90;;;;;;6245952;22;20152;-39
2022/09/27 04:15:12;;;;;;;2.70;0.67;;;9.00;99.90;;;;;;6246011;22;20177;-36
2022/09/27 04:17:44;;;;;;;3.77;1.10;;;9.00;99.90;;;;;;6219407;23;20211;-39
2022/09/27 04:20:11;;;;;;;2.00;0.77;;;9.00;99.90;;;;;;6246838;22;20144;-37
2022/09/27 04:22:45;;;;;;;5.03;1.00;;;8.90;99.90;;;;;;6244298;23;20170;-39
2022/09/27 04:25:12;;;;;;;2.20;0.77;;;8.90;99.90;;;;;;6244357;23;20187;-40
2022/09/27 04:27:39;;;;;;;0.80;0.60;;;8.90;99.90;;;;;;6245783;22;20249;-42
2022/09/27 04:30:05;;;;;;;4.40;0.60;;;8.90;99.90;;;;;;6245851;22;20161;-42
2022/09/27 04:32:31;;;;;;;2.10;0.80;;;8.90;99.90;;;;;;6244189;23;20160;-41
2022/09/27 04:37:43;;;;;;;1.40;0.67;;;8.80;99.90;;;;;;6245812;23;20187;-40
2022/09/27 04:40:09;;;;;;;2.30;0.80;;;8.70;99.90;;;;;;6247215;22;20259;-41
2022/09/27 04:42:37;;;;;;;2.27;0.80;;;8.70;99.90;;;;;;6247909;22;20153;-40
2022/09/27 04:45:08;;;;;;;2.57;0.80;;;8.70;99.90;;;;;;6248581;22;20184;-40
2022/09/27 04:47:34;;;;;;;2.70;0.50;;;8.70;99.90;;;;;;6247862;22;20262;-41
2022/09/27 04:49:59;;;;;;;2.10;0.90;;;8.70;99.90;;;;;;6246252;23;20206;-40
2022/09/27 04:52:25;;;;;;;2.83;0.90;;;8.70;99.90;;;;;;6246392;23;20238;-41
2022/09/27 04:54:54;;;;;;;2.23;0.73;;;8.70;99.90;;;;;;6246365;23;20180;-37
2022/09/27 04:57:20;;;;;;;2.13;1.13;;;8.60;99.90;;;;;;6248602;22;20250;-39
2022/09/27 04:59:46;;;;;;;2.83;0.80;;;8.60;99.90;;;;;;6248105;22;20241;-40
2022/09/27 05:02:12;;;;;;;1.47;0.70;;;8.60;99.90;;;;;;6248396;22;20470;-38
2022/09/27 05:04:37;;;;;;;2.50;0.80;;;8.60;99.90;;;;;;6248036;22;20182;-37
2022/09/27 05:07:06;;;;;;;3.43;1.00;;;8.60;99.90;;;;;;6247875;22;20230;-39
2022/09/27 05:09:32;;;;;;;3.40;0.90;;;8.60;99.90;;;;;;6247598;22;20551;-39
2022/09/27 05:11:58;;;;;;;4.00;0.90;;;8.60;99.90;;;;;;6248156;22;20150;-37
2022/09/27 05:14:24;;;;;;;2.77;0.60;;;8.60;99.90;;;;;;6248121;22;20587;-38
2022/09/27 05:16:49;;;;;;;4.00;0.80;;;8.60;99.90;;;;;;6247961;22;20246;-39
2022/09/27 05:19:16;;;;;;;4.60;1.20;;;8.60;99.90;;;;;;6247987;22;20590;-41
2022/09/27 05:21:42;;;;;;;2.27;1.00;;;8.60;99.90;;;;;;6247927;22;20211;-39
2022/09/27 05:24:08;;;;;;;0.97;0.93;;;8.60;99.90;;;;;;6248085;22;20160;-40
2022/09/27 05:26:34;;;;;;;1.87;1.20;;;8.60;99.90;;;;;;6247432;22;20496;-41
2022/09/27 05:29:00;;;;;;;3.27;1.87;;;8.70;99.90;;;;;;6247797;22;20152;-40
2022/09/27 05:31:26;;;;;;;4.30;1.60;;;8.70;99.90;;;;;;6247747;22;20148;-38
2022/09/27 05:33:52;;;;;;;3.37;1.23;;;8.70;99.90;;;;;;6245916;23;20177;-38
2022/09/27 05:36:18;;;;;;;2.87;1.17;;;8.70;99.90;;;;;;6247848;22;20178;-37
2022/09/27 05:38:48;;;;;;;4.67;1.90;;;8.70;99.90;;;;;;6247547;22;20241;-37
2022/09/27 05:41:15;;;;;;;3.57;1.60;;;8.80;99.90;;;;;;6247742;22;20243;-39
2022/09/27 05:43:41;;;;;;;5.17;2.57;;;8.80;99.90;;;;;;6245815;23;20167;-39
2022/09/27 05:46:08;;;;;;;5.03;3.00;;;8.80;99.90;;;;;;6245809;23;20203;-38
2022/09/27 05:48:37;;;;;;;4.77;2.00;;;8.80;99.90;;;;;;6248078;22;20179;-40
2022/09/27 05:51:03;;;;;;;3.80;1.60;;;8.80;99.90;;;;;;6247642;22;20585;-42
2022/09/27 05:53:30;;;;;;;1.53;1.40;;;8.80;99.90;;;;;;6245686;23;20475;-40
2022/09/27 05:56:00;;;;;;;3.27;1.30;;;8.80;99.90;;;;;;6247346;22;20148;-41
2022/09/27 05:58:27;;;;;;;2.80;1.10;;;8.80;99.90;;;;;;6220795;23;20215;-39
2022/09/27 06:00:53;;;;;;;3.67;1.00;;;8.80;99.90;;;;;;6247531;22;20620;-39
2022/09/27 06:03:20;;;;;;;2.13;0.90;;;8.80;99.90;;;;;;6247521;22;20222;-40
2022/09/27 06:05:47;;;;;;;3.57;1.17;;;8.80;99.90;;;;;;6247205;22;20158;-39
2022/09/27 06:08:13;;;;;;;2.73;1.00;;;8.80;99.90;;;;;;6245635;23;20187;-43
2022/09/27 06:10:40;;;;;;;3.80;0.57;;;8.90;99.90;;;;;;6245675;23;20156;-39
2022/09/27 06:13:10;;;;;;;2.40;0.50;;;8.80;99.90;;;;;;6245616;23;20625;-40
2022/09/27 06:15:38;;;;;;;2.60;0.87;;;8.90;99.90;;;;;;6245539;23;20156;-38
2022/09/27 06:18:16;;;;;;;0.73;0.43;;;8.90;99.90;;;;;;6245515;23;20256;-39
2022/09/27 06:20:41;;;;;;;5.27;0.90;;;8.80;99.90;;;;;;6247287;22;20167;-40
2022/09/27 06:23:19;;;;;;;2.07;1.20;;;8.90;99.90;;;;;;6247019;22;20156;-42
2022/09/27 06:25:48;;;;;;;2.07;1.30;;;8.90;99.90;;;;;;6246866;22;20148;-41
2022/09/27 06:28:15;;;;;;;4.13;2.00;;;8.90;99.90;;;;;;6220713;23;20187;-41
2022/09/27 06:30:47;;;;;;;3.67;1.33;;;8.90;99.90;;;;;;6247145;22;20524;-43
2022/09/27 06:33:15;;;;;;;7.00;4.00;;;8.90;99.90;;;;;;6246975;22;20568;-42
2022/09/27 06:35:44;;;;;;;4.33;1.60;;;8.90;99.90;;;;;;6247574;22;20219;-39
2022/09/27 06:38:11;;;;;;;2.43;1.83;;;8.90;99.90;;;;;;6247100;22;20157;-39
2022/09/27 06:40:44;;;;;;;1.60;1.37;;;8.90;99.90;;;;;;6246919;22;20490;-41
2022/09/27 06:43:12;;;;;;;4.40;2.07;;;8.90;99.90;;;;;;6246902;22;20155;-42
2022/09/27 06:45:38;;;;;;;5.70;2.87;;;8.90;99.90;;;;;;6245678;23;20242;-40
2022/09/27 06:48:06;;;;;;;5.77;3.37;;;8.90;99.90;;;;;;6247182;22;20184;-41
2022/09/27 06:50:35;;;;;;;2.20;1.53;;;8.90;99.90;;;;;;6246769;22;20598;-40
2022/09/27 06:53:04;;;;;;;1.47;1.13;;;8.90;99.90;;;;;;6246111;23;20148;-42
2022/09/27 06:55:30;;;;;;;5.00;2.40;;;9.00;99.90;;;;;;6247025;22;20237;-41
2022/09/27 07:00:47;;;;;;;3.50;1.67;;;9.00;99.90;;;;;;6247068;23;20231;-41
2022/09/27 07:03:15;;;;;;;1.83;1.10;;;9.00;99.90;;;;;;6246730;22;20468;-42
2022/09/27 07:05:42;;;;;;;1.37;0.87;;;9.00;99.90;;;;;;6247327;22;20182;-39
2022/09/27 07:08:11;;;;;;;4.17;1.13;;;9.00;99.90;;;;;;6245004;23;20187;-39
2022/09/27 07:10:39;;;;;;;1.43;0.87;;;9.00;99.90;;;;;;6246591;22;20484;-40
2022/09/27 07:13:09;;;;;;;2.50;0.63;;;9.10;99.90;;;;;;6247238;22;20174;-41
2022/09/27 07:15:36;;;;;;;1.03;0.80;;;9.10;99.90;;;;;;6247398;22;20590;-40
2022/09/27 07:18:04;;;;;;;3.80;1.03;;;9.10;99.90;;;;;;6246712;22;20176;-40
2022/09/27 07:20:31;;;;;;;0.80;0.80;;;9.20;99.90;;;;;;6246732;22;20156;-39
2022/09/27 07:22:58;;;;;;;2.50;0.87;;;9.30;99.90;;;;;;6244783;23;20605;-38
2022/09/27 07:25:25;;;;;;;1.60;0.73;;;9.40;99.90;;;;;;6244667;23;20179;-40
2022/09/27 07:27:51;;;;;;;0.93;0.70;;;9.40;99.90;;;;;;6246843;22;20211;-42
2022/09/27 07:30:19;;;;;;;2.20;0.80;;;9.50;99.90;;;;;;6246314;22;20156;-39
2022/09/27 07:32:46;;;;;;;1.33;0.97;;;9.50;99.90;;;;;;6246540;22;20166;-42
2022/09/27 07:35:15;;;;;;;1.67;0.67;;;9.60;99.90;;;;;;6246279;22;20167;-37
2022/09/27 07:37:41;;;;;;;2.50;1.03;;;9.60;99.90;;;;;;6246425;22;20191;-41
2022/09/27 07:40:09;;;;;;;1.40;0.80;;;9.70;99.90;;;;;;6246429;22;20156;-41
2022/09/27 07:42:37;;;;;;;5.90;3.53;;;9.70;99.90;;;;;;6246153;22;20239;-39
2022/09/27 07:45:06;;;;;;;1.57;0.67;;;9.80;99.90;;;;;;6246758;22;20518;-41
2022/09/27 07:47:32;;;;;;;1.97;0.80;;;9.80;99.90;;;;;;6244614;23;20724;-41
2022/09/27 07:49:58;;;;;;;0.60;0.60;;;9.80;99.90;;;;;;6246251;22;20148;-39
2022/09/27 07:52:24;;;;;;;2.90;0.90;;;9.90;99.90;;;;;;6246461;22;20159;-39
2022/09/27 07:54:50;;;;;;;0.93;0.83;;;9.90;99.90;;;;;;6244652;23;20237;-37
2022/09/27 07:57:16;;;;;;;2.80;0.80;;;9.90;99.90;;;;;;6244588;23;20184;-37
2022/09/27 07:59:42;;;;;;;1.47;1.10;;;10.00;99.90;;;;;;6246147;22;20157;-38
2022/09/27 08:02:16;;;;;;;2.30;0.90;;;10.00;99.90;;;;;;6246360;22;20157;-39
2022/09/27 08:04:48;;;;;;;0.97;0.70;;;10.00;99.90;;;;;;6246407;22;20153;-40
2022/09/27 08:07:14;;;;;;;1.47;0.77;;;10.10;99.90;;;;;;6245928;22;20659;-38
2022/09/27 08:09:43;;;;;;;3.17;0.97;;;10.10;99.90;;;;;;6246237;22;20150;-40
2022/09/27 08:12:10;;;;;;;3.57;0.97;;;10.10;99.90;;;;;;6246052;22;20199;-39
2022/09/27 08:14:36;;;;;;;3.20;0.83;;;10.20;99.90;;;;;;6245819;22;20223;-42
2022/09/27 08:17:02;;;;;;;5.63;1.13;;;10.40;99.90;;;;;;6244665;23;20173;-39
2022/09/27 08:19:29;;;;;;;0.80;0.80;;;10.50;99.90;;;;;;6244309;23;20189;-40
2022/09/27 08:21:55;;;;;;;1.90;0.70;;;10.60;99.90;;;;;;6246086;22;20220;-42
2022/09/27 08:24:22;;;;;;;2.77;0.63;;;10.60;99.90;;;;;;6244290;23;20165;-38
2022/09/27 08:26:48;;;;;;;3.30;1.10;;;10.60;99.90;;;;;;6244155;23;20522;-39
2022/09/27 08:29:14;;;;;;;3.77;1.40;;;10.60;99.90;;;;;;6246156;22;20166;-39
2022/09/27 08:31:41;;;;;;;1.27;0.70;;;10.60;99.90;;;;;;6245937;22;20486;-41
2022/09/27 08:34:07;;;;;;;1.70;0.77;;;10.60;99.90;;;;;;6245486;22;20163;-39
2022/09/27 08:36:36;;;;;;;1.57;0.80;;;10.70;99.90;;;;;;6245738;22;20181;-39
2022/09/27 08:39:03;;;;;;;2.20;1.03;;;10.70;99.90;;;;;;6244801;23;20308;-41
2022/09/27 08:41:35;;;;;;;0.80;0.80;;;10.70;99.90;;;;;;6244099;23;20256;-39
2022/09/27 08:44:12;;;;;;;2.60;0.80;;;10.80;99.90;;;;;;6246275;22;20595;-39
2022/09/27 08:46:47;;;;;;;2.83;1.10;;;10.80;99.90;;;;;;6245755;22;20558;-39
2022/09/27 08:49:55;;;;;;;1.20;0.87;;;10.80;99.90;;;;;;6244621;23;20153;-41
2022/09/27 08:52:30;;;;;;;1.20;0.87;;;10.90;99.90;;;;;;6153714;23;20534;-41
2022/09/27 08:55:00;;;;;;;2.20;1.10;;;11.00;99.90;;;;;;6233113;22;20184;-40
2022/09/27 08:57:31;;;;;;;1.90;1.30;;;11.00;99.90;;;;;;6246366;22;20553;-41
2022/09/27 09:00:13;;;;;;;1.93;1.10;;;11.00;99.90;;;;;;6245944;22;20151;-39
2022/09/27 09:02:41;;;;;;;3.00;1.13;;;11.00;99.90;;;;;;6246033;22;20142;-39
2022/09/27 09:05:10;;;;;;;2.30;1.27;;;11.00;99.90;;;;;;6245997;22;20155;-41
2022/09/27 09:07:55;;;;;;;1.63;1.40;;;11.10;99.90;;;;;;6245511;22;20269;-40
2022/09/27 09:13:33;;;;;;;2.07;1.23;;;11.20;99.90;;;;;;6246321;23;20518;-40
2022/09/27 09:16:15;;;;;;;1.73;1.30;;;11.20;99.90;;;;;;6246080;22;20149;-39
2022/09/27 09:19:07;;;;;;;1.63;1.20;;;11.10;99.90;;;;;;6246252;22;20181;-43
2022/09/27 09:22:04;;;;;;;5.17;1.87;;;11.10;99.90;;;;;;6246016;22;20581;-38
2022/09/27 09:25:02;;;;;;;1.53;1.20;;;11.10;99.90;;;;;;6246387;22;20477;-39
2022/09/27 09:27:51;;;;;;;2.13;1.20;;;11.20;99.90;;;;;;6246953;23;20255;-42
2022/09/27 09:30:37;;;;;;;2.33;1.30;;;11.20;99.90;;;;;;6248081;22;20472;-42
2022/09/27 09:33:27;;;;;;;5.63;1.30;;;11.20;99.90;;;;;;6247834;23;20136;-41
2022/09/27 09:36:12;;;;;;;3.30;1.50;;;11.10;99.90;;;;;;6247347;22;20266;-40
2022/09/27 09:39:16;;;;;;;3.13;1.47;;;11.20;99.90;;;;;;6247924;22;20143;-39
2022/09/27 09:41:54;;;;;;;1.40;1.30;;;11.20;99.90;;;;;;6245395;23;20169;-40
2022/09/27 09:44:32;;;;;;;2.70;1.37;;;11.20;99.90;;;;;;6247370;22;20163;-40
2022/09/27 09:47:00;;;;;;;2.40;1.20;;;11.20;99.90;;;;;;6246459;23;20186;-45
2022/09/27 09:49:32;;;;;;;3.13;1.50;;;11.20;99.90;;;;;;6247497;22;20231;-43
2022/09/27 09:52:04;;;;;;;2.30;1.30;;;11.20;99.90;;;;;;6247668;22;20547;-44
2022/09/27 09:54:35;;;;;;;2.23;1.10;;;11.20;99.90;;;;;;6247816;22;20552;-45
2022/09/27 09:57:13;;;;;;;2.13;1.13;;;11.20;99.90;;;;;;6247516;22;20183;-45
2022/09/27 09:59:54;;;;;;;0.80;0.80;;;11.10;99.90;;;;;;6247711;22;20159;-44
2022/09/27 10:02:25;;;;;;;5.73;1.50;;;11.00;99.90;;;;;;6246025;23;20187;-47
2022/09/27 10:04:51;;;;;;;7.50;1.70;;;11.00;99.90;;;;;;6247312;22;20155;-45
2022/09/27 10:07:20;;;;;;;2.37;1.43;;;11.00;99.90;;;;;;6247350;22;20565;-47
2022/09/27 10:09:46;;;;;;;4.03;1.47;;;11.00;99.90;;;;;;6247297;22;20152;-45
2022/09/27 10:12:12;;;;;;;3.93;1.37;;;11.00;99.90;;;;;;6247453;22;20162;-44
2022/09/27 10:14:39;;;;;;;3.63;1.63;;;10.90;99.90;;;;;;6247728;22;20586;-43
2022/09/27 10:17:13;;;;;;;4.90;1.60;;;10.90;99.90;;;;;;6247808;22;20179;-42
2022/09/27 10:19:40;;;;;;;3.63;1.40;;;11.00;99.90;;;;;;6245711;23;20585;-44
2022/09/27 10:22:31;;;;;;;3.20;1.77;;;11.00;99.90;;;;;;6247557;22;20536;-46
2022/09/27 10:25:00;;;;;;;6.57;1.83;;;11.10;99.90;;;;;;6245453;23;20163;-43
2022/09/27 10:27:26;;;;;;;3.87;1.80;;;11.10;99.90;;;;;;6245482;23;20187;-43
2022/09/27 10:29:59;;;;;;;1.67;1.50;;;11.20;99.90;;;;;;6247041;22;20148;-43
2022/09/27 10:32:32;;;;;;;3.80;2.30;;;11.30;99.90;;;;;;6245465;23;20155;-47
2022/09/27 10:35:28;;;;;;;6.77;1.90;;;11.40;99.90;;;;;;6247192;22;20168;-45
2022/09/27 10:38:20;;;;;;;6.17;2.90;;;11.50;99.90;;;;;;6245062;23;20187;-46
2022/09/27 10:40:48;;;;;;;5.80;3.50;;;11.50;99.90;;;;;;6247160;22;20147;-43
2022/09/27 10:43:35;;;;;;;4.27;2.60;;;11.50;99.90;;;;;;6245297;23;20537;-45
2022/09/27 10:46:08;;;;;;;4.97;2.70;;;11.50;99.90;;;;;;6247041;22;20170;-45
2022/09/27 10:48:35;;;;;;;3.13;2.50;;;11.50;99.90;;;;;;6246944;22;20182;-45
2022/09/27 10:51:05;;;;;;;3.57;2.23;;;11.50;99.90;;;;;;6246854;22;20174;-44
2022/09/27 10:53:34;;;;;;;3.97;2.00;;;11.50;99.90;;;;;;6247173;22;20140;-45
2022/09/27 10:56:00;;;;;;;6.83;3.03;;;11.60;99.90;;;;;;6246625;22;20174;-43
2022/09/27 10:58:33;;;;;;;4.83;3.67;;;11.60;99.90;;;;;;6245894;22;20189;-47
2022/09/27 11:01:02;;;;;;;5.67;2.90;;;11.70;99.90;;;;;;6246848;22;20156;-44
2022/09/27 11:03:34;;;;;;;2.77;2.07;;;11.80;99.90;;;;;;6246640;22;20226;-44
2022/09/27 11:06:17;;;;;;;4.83;2.33;;;11.80;99.90;;;;;;6247199;22;20470;-46
2022/09/27 11:08:44;;;;;;;2.63;2.10;;;11.70;99.90;;;;;;6246921;22;20171;-46
2022/09/27 11:11:13;;;;;;;6.93;2.43;;;11.70;99.90;;;;;;6246973;22;20166;-47
2022/09/27 11:13:57;;;;;;;4.80;2.67;;;11.70;99.90;;;;;;6247732;22;20151;-41
2022/09/27 11:16:29;;;;;;;2.80;2.30;;;11.70;99.90;;;;;;6247097;22;20183;-41
2022/09/27 11:19:07;;;;;;;8.70;2.40;;;11.80;99.90;;;;;;6244990;23;20162;-43
2022/09/27 11:22:07;;;;;;;8.07;2.53;;;11.80;99.90;;;;;;6246727;22;20152;-40
2022/09/27 11:24:54;;;;;;;3.43;1.70;;;12.00;99.90;;;;;;6246793;22;20135;-41
2022/09/27 11:27:34;;;;;;;4.17;2.17;;;12.00;99.90;;;;;;6246477;22;20190;-42
2022/09/27 11:30:06;;;;;;;2.60;2.40;;;12.10;99.90;;;;;;6247290;22;20136;-42
2022/09/27 11:32:50;;;;;;;2.67;1.83;;;12.10;99.90;;;;;;6245121;23;20208;-40
2022/09/27 11:35:43;;;;;;;2.90;1.73;;;12.10;99.90;;;;;;6244935;23;20282;-40
2022/09/27 11:38:16;;;;;;;1.67;1.57;;;12.10;99.90;;;;;;6247131;22;20159;-41
2022/09/27 11:41:10;;;;;;;3.73;1.23;;;12.10;99.90;;;;;;6246894;22;20174;-42
2022/09/27 11:44:07;;;;;;;1.20;1.00;;;12.20;99.90;;;;;;6246945;22;20590;-42
2022/09/27 11:46:37;;;;;;;2.10;1.17;;;12.40;99.90;;;;;;6246555;23;20266;-40
2022/09/27 11:49:27;;;;;;;1.47;0.90;;;12.50;99.90;;;;;;6246179;22;20215;-39
2022/09/27 11:52:33;;;;;;;2.07;1.00;;;12.50;99.90;;;;;;6247055;22;20170;-40
2022/09/27 11:55:32;;;;;;;3.27;1.17;;;12.40;99.90;;;;;;6244927;23;20174;-39
2022/09/27 11:58:42;;;;;;;1.13;0.50;;;12.30;99.90;;;;;;6246633;22;20184;-40
2022/09/27 12:01:16;;;;;;;2.77;0.87;;;12.20;99.90;;;;;;6246646;22;20163;-40
2022/09/27 12:04:06;;;;;;;0.60;0.60;;;12.00;99.90;;;;;;6246756;22;20143;-40
2022/09/27 12:06:58;;;;;;;1.27;1.17;;;11.90;99.90;;;;;;6246559;22;20221;-40
2022/09/27 12:09:30;;;;;;;0.77;0.77;;;11.80;99.90;;;;;;6210760;22;20262;-41
2022/09/27 12:12:04;;;;;;;1.93;1.00;;;11.70;99.90;;;;;;6244992;23;20622;-41
2022/09/27 12:14:39;;;;;;;2.90;0.90;;;11.70;99.90;;;;;;6246471;22;20567;-40
2022/09/27 12:17:11;;;;;;;1.07;0.90;;;11.70;99.90;;;;;;6246527;22;20217;-42
2022/09/27 12:19:49;;;;;;;2.83;1.07;;;11.70;99.90;;;;;;6246594;22;20193;-41
2022/09/27 12:22:25;;;;;;;0.43;0.43;;;11.80;99.90;;;;;;6221250;23;20243;-42
2022/09/27 12:24:51;;;;;;;1.13;0.87;;;11.90;99.90;;;;;;6246424;22;20144;-41
2022/09/27 12:27:39;;;;;;;0.90;0.80;;;11.90;99.90;;;;;;6248632;22;20249;-45
2022/09/27 12:30:05;;;;;;;1.87;0.60;;;12.00;99.90;;;;;;6251723;22;20195;-44
2022/09/27 12:32:43;;;;;;;3.03;1.03;;;12.00;99.90;;;;;;6249119;23;20156;-45
2022/09/27 12:35:10;;;;;;;1.53;0.50;;;12.00;99.90;;;;;;6250770;22;20170;-43
2022/09/27 12:37:45;;;;;;;2.20;0.57;;;11.90;99.90;;;;;;6248821;23;20629;-44
2022/09/27 12:40:22;;;;;;;0.70;0.50;;;11.80;99.90;;;;;;6249556;22;20186;-45
2022/09/27 12:43:12;;;;;;;0.70;0.47;;;11.70;99.90;;;;;;6250290;22;20163;-45
2022/09/27 12:45:57;;;;;;;0.23;0.20;;;11.70;99.90;;;;;;6249484;22;20146;-45
2022/09/27 12:48:41;;;;;;;1.47;0.40;;;11.60;99.90;;;;;;6248948;22;20180;-45
2022/09/27 12:51:12;;;;;;;1.17;0.30;;;11.60;99.90;;;;;;6247124;23;20163;-43
2022/09/27 12:53:55;;;;;;;0.87;0.43;;;11.60;99.90;;;;;;6249534;22;20163;-46
2022/09/27 12:56:20;;;;;;;0.40;0.20;;;11.60;99.90;;;;;;6249124;23;20541;-44
2022/09/27 12:59:09;;;;;;;0.83;0.40;;;11.60;99.90;;;;;;6251108;22;20242;-43
2022/09/27 13:01:50;;;;;;;0.73;0.40;;;11.60;99.90;;;;;;6251291;22;20156;-46
2022/09/27 13:04:50;;;;;;;6.60;3.10;;;11.60;99.90;;;;;;6250152;22;20206;-39
2022/09/27 13:07:53;;;;;;;0.80;0.80;;;11.60;99.90;;;;;;6247933;22;20240;-41
2022/09/27 13:10:38;;;;;;;2.10;0.60;;;11.50;99.90;;;;;;6247778;23;20466;-40
2022/09/27 13:13:10;;;;;;;1.53;0.50;;;11.50;99.90;;;;;;6248060;22;20178;-42
2022/09/27 13:15:44;;;;;;;1.60;0.50;;;11.50;99.90;;;;;;6247935;22;20132;-40
2022/09/27 13:18:34;;;;;;;0.83;0.50;;;11.50;99.90;;;;;;6248382;22;20155;-42
2022/09/27 13:21:04;;;;;;;0.70;0.60;;;11.50;99.90;;;;;;6248062;22;20152;-41
2022/09/27 13:23:30;;;;;;;1.03;0.50;;;11.60;99.90;;;;;;6248104;22;20548;-39
2022/09/27 13:26:03;;;;;;;0.87;0.43;;;11.60;99.90;;;;;;6247597;22;20227;-37
2022/09/27 13:28:32;;;;;;;0.87;0.60;;;11.60;99.90;;;;;;6248456;22;20171;-40
2022/09/27 13:31:10;;;;;;;0.67;0.40;;;11.60;99.90;;;;;;6247566;22;20161;-41
2022/09/27 13:33:50;;;;;;;0.50;0.50;;;11.60;99.90;;;;;;6248231;22;20215;-40
2022/09/27 13:36:31;;;;;;;0.73;0.60;;;11.60;99.90;;;;;;6247984;22;20175;-40